createdAt,value
2022-08-25T00:00:14.685Z,96.21
2022-08-25T00:03:01.843Z,96.18
2022-08-25T00:05:32.332Z,98.27
2022-08-25T00:08:02.940Z,99.73
2022-08-25T00:10:30.486Z,100.00
2022-08-25T00:12:57.944Z,100.00
2022-08-25T00:15:25.630Z,100.00
2022-08-25T00:17:52.996Z,99.78
2022-08-25T00:20:20.955Z,99.49
2022-08-25T00:22:49.434Z,99.07
2022-08-25T00:25:16.970Z,98.89
2022-08-25T00:27:44.734Z,98.98
2022-08-25T00:30:15.960Z,98.95
2022-08-25T00:32:44.436Z,99.26
2022-08-25T00:35:23.581Z,99.65
2022-08-25T00:37:50.799Z,100.00
2022-08-25T00:40:18.496Z,100.00
2022-08-25T00:42:46.767Z,99.74
2022-08-25T00:45:14.029Z,99.29
2022-08-25T00:47:41.553Z,98.63
2022-08-25T00:50:11.749Z,98.65
2022-08-25T00:52:45.824Z,98.01
2022-08-25T00:55:25.617Z,97.80
2022-08-25T00:58:16.058Z,97.59
2022-08-25T01:00:49.778Z,97.47
2022-08-25T01:03:19.265Z,97.51
2022-08-25T01:05:48.024Z,97.58
2022-08-25T01:08:19.678Z,97.42
2022-08-25T01:10:50.281Z,97.83
2022-08-25T01:13:29.155Z,97.43
2022-08-25T01:15:58.833Z,97.43
2022-08-25T01:18:28.487Z,97.18
2022-08-25T01:20:58.499Z,97.72
2022-08-25T01:23:27.092Z,98.34
2022-08-25T01:26:09.339Z,97.83
2022-08-25T01:28:37.622Z,97.91
2022-08-25T01:31:24.030Z,97.38
2022-08-25T01:33:51.971Z,97.76
2022-08-25T01:36:21.893Z,98.43
2022-08-25T01:38:49.660Z,99.16
2022-08-25T01:41:51.434Z,99.23
2022-08-25T01:44:19.355Z,100.00
2022-08-25T01:46:46.648Z,100.00
2022-08-25T01:49:13.869Z,100.00
2022-08-25T01:51:51.455Z,100.00
2022-08-25T01:54:18.878Z,100.00
2022-08-25T01:56:46.370Z,100.00
2022-08-25T01:59:21.637Z,100.00
2022-08-25T02:02:00.193Z,100.00
2022-08-25T02:04:32.360Z,100.00
2022-08-25T02:07:03.747Z,100.00
2022-08-25T02:09:30.985Z,100.00
2022-08-25T02:11:58.293Z,100.00
2022-08-25T02:14:26.378Z,100.00
2022-08-25T02:16:55.253Z,100.00
2022-08-25T02:19:24.891Z,100.00
2022-08-25T02:21:52.923Z,100.00
2022-08-25T02:24:20.902Z,100.00
2022-08-25T02:26:48.981Z,100.00
2022-08-25T02:29:17.334Z,100.00
2022-08-25T02:31:45.959Z,100.00
2022-08-25T02:34:14.343Z,100.00
2022-08-25T02:36:43.864Z,100.00
2022-08-25T02:39:13.101Z,100.00
2022-08-25T02:41:40.875Z,100.00
2022-08-25T02:44:09.215Z,100.00
2022-08-25T02:46:38.752Z,100.00
2022-08-25T02:49:07.713Z,100.00
2022-08-25T02:51:36.310Z,100.00
2022-08-25T02:54:06.227Z,100.00
2022-08-25T02:56:34.059Z,100.00
2022-08-25T02:59:02.980Z,100.00
2022-08-25T03:01:32.637Z,100.00
2022-08-25T03:04:02.123Z,100.00
2022-08-25T03:06:29.787Z,100.00
2022-08-25T03:08:57.500Z,100.00
2022-08-25T03:11:26.698Z,100.00
2022-08-25T03:13:54.703Z,100.00
2022-08-25T03:16:22.792Z,100.00
2022-08-25T03:18:55.819Z,100.00
2022-08-25T03:21:23.389Z,100.00
2022-08-25T03:23:51.045Z,100.00
2022-08-25T03:26:36.999Z,100.00
2022-08-25T03:29:07.673Z,100.00
2022-08-25T03:31:36.711Z,100.00
2022-08-25T03:34:04.668Z,100.00
2022-08-25T03:36:31.909Z,100.00
2022-08-25T03:39:00.483Z,100.00
2022-08-25T03:41:32.791Z,100.00
2022-08-25T03:44:02.239Z,100.00
2022-08-25T03:46:35.051Z,100.00
2022-08-25T03:49:06.547Z,100.00
2022-08-25T03:51:40.484Z,100.00
2022-08-25T03:54:10.586Z,100.00
2022-08-25T03:56:38.691Z,100.00
2022-08-25T03:59:09.152Z,100.00
2022-08-25T04:01:39.151Z,100.00
2022-08-25T04:04:09.477Z,100.00
2022-08-25T04:06:38.679Z,100.00
2022-08-25T04:09:06.681Z,100.00
2022-08-25T04:11:34.455Z,100.00
2022-08-25T04:14:02.715Z,100.00
2022-08-25T04:16:33.933Z,100.00
2022-08-25T04:19:06.213Z,100.00
2022-08-25T04:21:33.779Z,100.00
2022-08-25T04:24:00.977Z,100.00
2022-08-25T04:26:33.719Z,100.00
2022-08-25T04:29:04.031Z,100.00
2022-08-25T04:31:32.368Z,100.00
2022-08-25T04:34:04.227Z,100.00
2022-08-25T04:36:42.285Z,100.00
2022-08-25T04:39:09.559Z,100.00
2022-08-25T04:41:38.934Z,99.96
2022-08-25T04:44:07.207Z,99.89
2022-08-25T04:46:35.695Z,99.11
2022-08-25T04:49:04.419Z,98.53
2022-08-25T04:51:36.981Z,97.94
2022-08-25T04:54:10.057Z,97.33
2022-08-25T04:56:40.761Z,97.20
2022-08-25T04:59:12.611Z,96.45
2022-08-25T05:01:42.776Z,96.44
2022-08-25T05:04:27.842Z,96.25
2022-08-25T05:06:58.514Z,96.10
2022-08-25T05:09:26.859Z,95.56
2022-08-25T05:11:54.938Z,95.31
2022-08-25T05:14:26.380Z,94.67
2022-08-25T05:16:55.972Z,94.15
2022-08-25T05:19:24.586Z,94.20
2022-08-25T05:21:52.787Z,93.94
2022-08-25T05:24:22.288Z,93.56
2022-08-25T05:26:50.066Z,93.35
2022-08-25T05:29:17.611Z,92.91
2022-08-25T05:31:50.053Z,92.76
2022-08-25T05:34:19.717Z,92.48
2022-08-25T05:36:48.652Z,92.46
2022-08-25T05:39:16.335Z,91.91
2022-08-25T05:41:44.403Z,91.83
2022-08-25T05:44:12.953Z,91.40
2022-08-25T05:46:40.195Z,91.17
2022-08-25T05:49:07.699Z,91.08
2022-08-25T05:51:34.859Z,90.50
2022-08-25T05:54:02.129Z,90.21
2022-08-25T05:56:30.141Z,90.17
2022-08-25T05:58:57.342Z,89.82
2022-08-25T06:01:48.460Z,89.30
2022-08-25T06:04:18.145Z,88.92
2022-08-25T06:06:45.359Z,88.22
2022-08-25T06:09:12.720Z,88.00
2022-08-25T06:11:41.422Z,87.31
2022-08-25T06:14:10.889Z,86.94
2022-08-25T06:16:40.312Z,86.77
2022-08-25T06:19:10.297Z,86.38
2022-08-25T06:21:40.964Z,86.01
2022-08-25T06:24:15.180Z,85.53
2022-08-25T06:26:44.260Z,84.74
2022-08-25T06:29:14.189Z,83.89
2022-08-25T06:31:42.685Z,82.72
2022-08-25T06:34:11.849Z,80.08
2022-08-25T06:36:40.605Z,78.00
2022-08-25T06:39:09.191Z,72.59
2022-08-25T06:41:38.843Z,70.22
2022-08-25T06:44:06.793Z,67.55
2022-08-25T06:46:36.132Z,64.85
2022-08-25T06:49:06.736Z,61.41
2022-08-25T06:51:38.238Z,59.25
2022-08-25T06:54:08.153Z,55.99
2022-08-25T06:56:36.783Z,53.43
2022-08-25T06:59:07.322Z,50.60
2022-08-25T07:01:35.270Z,48.55
2022-08-25T07:04:10.325Z,45.53
2022-08-25T07:06:39.678Z,44.21
2022-08-25T07:09:10.873Z,43.05
2022-08-25T07:11:40.768Z,44.01
2022-08-25T07:14:11.850Z,46.10
2022-08-25T07:16:41.762Z,49.70
2022-08-25T07:19:15.070Z,52.73
2022-08-25T07:21:45.908Z,54.12
2022-08-25T07:24:14.945Z,55.77
2022-08-25T07:26:44.354Z,56.05
2022-08-25T07:29:15.920Z,56.57
2022-08-25T07:31:43.575Z,56.96
2022-08-25T07:34:29.744Z,57.41
2022-08-25T07:36:58.289Z,56.27
2022-08-25T07:39:29.013Z,56.31
2022-08-25T07:41:56.848Z,55.96
2022-08-25T07:44:27.983Z,56.20
2022-08-25T07:46:56.470Z,55.40
2022-08-25T07:49:26.582Z,54.12
2022-08-25T07:52:06.497Z,52.63
2022-08-25T07:54:37.993Z,50.57
2022-08-25T07:57:08.701Z,47.15
2022-08-25T07:59:41.432Z,43.72
2022-08-25T08:02:17.945Z,39.92
2022-08-25T08:04:53.860Z,35.39
2022-08-25T08:07:41.864Z,32.97
2022-08-25T08:13:07.007Z,28.36
2022-08-25T08:15:36.192Z,26.73
2022-08-25T08:18:05.345Z,25.12
2022-08-25T08:20:42.275Z,23.53
2022-08-25T08:23:12.067Z,22.34
2022-08-25T08:25:39.362Z,21.50
2022-08-25T08:28:07.071Z,20.49
2022-08-25T08:30:36.739Z,19.85
2022-08-25T08:33:10.207Z,19.01
2022-08-25T08:35:41.604Z,18.24
2022-08-25T08:38:16.123Z,17.65
2022-08-25T08:42:11.592Z,16.08
2022-08-25T08:44:45.403Z,16.12
2022-08-25T08:48:01.073Z,15.36
2022-08-25T08:50:54.711Z,15.50
2022-08-25T08:53:46.481Z,14.68
2022-08-25T08:56:57.601Z,14.23
2022-08-25T08:59:35.356Z,14.14
2022-08-25T09:02:06.178Z,14.00
2022-08-25T09:04:59.487Z,13.71
2022-08-25T09:07:41.274Z,12.74
2022-08-25T09:10:11.137Z,13.40
2022-08-25T09:13:19.526Z,12.81
2022-08-25T09:16:38.144Z,12.95
2022-08-25T09:20:02.158Z,12.27
2022-08-25T09:22:47.836Z,11.54
2022-08-25T09:25:52.374Z,10.59
2022-08-25T09:28:33.873Z,10.82
2022-08-25T09:31:29.612Z,10.79
2022-08-25T09:34:02.298Z,10.27
2022-08-25T09:36:35.450Z,9.72
2022-08-25T09:39:06.860Z,10.17
2022-08-25T09:41:53.085Z,9.51
2022-08-25T09:44:28.138Z,9.21
2022-08-25T09:47:28.024Z,9.22
2022-08-25T09:50:04.466Z,8.59
2022-08-25T09:52:41.367Z,8.09
2022-08-25T09:55:09.405Z,8.74
2022-08-25T09:57:43.433Z,8.34
2022-08-25T10:00:35.103Z,8.38
2022-08-25T10:03:24.938Z,8.61
2022-08-25T10:05:56.899Z,8.44
2022-08-25T10:08:55.668Z,7.47
2022-08-25T10:11:47.688Z,7.61
2022-08-25T10:14:36.449Z,7.83
2022-08-25T10:17:31.490Z,8.43
2022-08-25T10:20:35.147Z,7.82
2022-08-25T10:23:15.212Z,7.89
2022-08-25T10:25:59.433Z,7.90
2022-08-25T10:29:05.300Z,8.05
2022-08-25T10:31:56.651Z,8.02
2022-08-25T10:34:53.946Z,7.58
2022-08-25T10:38:00.878Z,8.22
2022-08-25T10:40:46.276Z,8.12
2022-08-25T10:43:49.844Z,8.15
2022-08-25T10:47:05.948Z,7.18
2022-08-25T10:49:49.963Z,7.12
2022-08-25T10:52:58.233Z,8.35
2022-08-25T10:55:50.448Z,6.95
2022-08-25T10:58:35.514Z,7.90
2022-08-25T11:01:15.774Z,7.71
2022-08-25T11:04:05.107Z,7.15
2022-08-25T11:06:52.645Z,6.78
2022-08-25T11:09:30.846Z,6.54
2022-08-25T11:12:19.058Z,6.13
2022-08-25T11:14:54.326Z,6.56
2022-08-25T11:17:52.759Z,6.36
2022-08-25T11:20:59.904Z,6.65
2022-08-25T11:23:49.479Z,6.18
2022-08-25T11:26:31.905Z,6.20
2022-08-25T11:29:16.627Z,6.35
2022-08-25T11:31:53.564Z,6.41
2022-08-25T11:34:22.973Z,6.64
2022-08-25T11:37:01.332Z,6.46
2022-08-25T11:40:08.750Z,6.88
2022-08-25T11:42:43.046Z,6.38
2022-08-25T11:45:43.750Z,6.48
2022-08-25T11:48:42.992Z,6.31
2022-08-25T11:51:39.834Z,6.90
2022-08-25T11:54:36.538Z,6.93
2022-08-25T11:57:13.165Z,6.90
2022-08-25T11:59:53.276Z,7.08
2022-08-25T12:02:47.680Z,7.00
2022-08-25T12:05:22.113Z,7.19
2022-08-25T12:08:26.688Z,7.79
2022-08-25T12:11:10.910Z,7.75
2022-08-25T12:13:50.941Z,7.46
2022-08-25T12:17:00.429Z,6.87
2022-08-25T12:19:36.947Z,6.87
2022-08-25T12:22:05.729Z,6.53
2022-08-25T12:24:48.140Z,7.45
2022-08-25T12:27:34.305Z,7.00
2022-08-25T12:30:29.205Z,7.86
2022-08-25T12:33:37.269Z,8.98
2022-08-25T12:36:11.462Z,8.85
2022-08-25T12:38:52.427Z,9.03
2022-08-25T12:41:33.568Z,10.09
2022-08-25T12:44:41.433Z,10.26
2022-08-25T12:47:27.246Z,10.64
2022-08-25T12:50:35.235Z,11.71
2022-08-25T12:53:35.217Z,13.14
2022-08-25T12:56:07.949Z,13.41
2022-08-25T12:59:03.762Z,14.07
2022-08-25T13:02:03.149Z,15.80
2022-08-25T13:04:52.411Z,17.21
2022-08-25T13:07:35.754Z,18.43
2022-08-25T13:10:44.112Z,19.09
2022-08-25T13:13:31.572Z,20.08
2022-08-25T13:16:06.641Z,20.63
2022-08-25T13:18:39.809Z,21.46
2022-08-25T13:21:07.376Z,21.82
2022-08-25T13:23:41.843Z,21.97
2022-08-25T13:26:22.480Z,22.02
2022-08-25T13:29:10.925Z,20.52
2022-08-25T13:31:55.721Z,18.29
2022-08-25T13:34:34.980Z,17.49
2022-08-25T13:37:30.545Z,16.64
2022-08-25T13:40:18.797Z,16.21
2022-08-25T13:42:56.104Z,15.07
2022-08-25T13:45:31.780Z,14.34
2022-08-25T13:47:59.600Z,13.29
2022-08-25T13:50:27.225Z,12.45
2022-08-25T13:53:11.393Z,12.56
2022-08-25T13:55:53.868Z,12.06
2022-08-25T13:58:39.321Z,11.49
2022-08-25T14:01:48.994Z,11.59
2022-08-25T14:04:51.190Z,12.22
2022-08-25T14:07:22.784Z,12.29
2022-08-25T14:10:34.834Z,12.01
2022-08-25T14:13:36.474Z,12.37
2022-08-25T14:16:38.797Z,12.50
2022-08-25T14:19:20.255Z,11.68
2022-08-25T14:21:49.626Z,12.07
2022-08-25T14:24:23.790Z,12.74
2022-08-25T14:26:54.043Z,14.37
2022-08-25T14:29:22.496Z,15.41
2022-08-25T14:31:52.505Z,17.42
2022-08-25T14:34:26.143Z,17.90
2022-08-25T14:36:57.626Z,19.61
2022-08-25T14:39:29.416Z,20.13
2022-08-25T14:41:58.403Z,21.71
2022-08-25T14:44:25.616Z,22.26
2022-08-25T14:47:00.318Z,22.79
2022-08-25T14:49:36.553Z,22.99
2022-08-25T14:52:22.708Z,23.91
2022-08-25T14:54:50.756Z,24.40
2022-08-25T14:57:18.464Z,24.63
2022-08-25T14:59:46.332Z,25.18
2022-08-25T15:02:21.000Z,25.72
2022-08-25T15:04:55.680Z,26.62
2022-08-25T15:07:43.104Z,26.33
2022-08-25T15:10:13.602Z,27.56
2022-08-25T15:12:47.841Z,28.31
2022-08-25T15:15:16.752Z,27.89
2022-08-25T15:17:47.327Z,27.71
2022-08-25T15:20:16.816Z,28.16
2022-08-25T15:22:45.516Z,29.02
2022-08-25T15:25:13.019Z,28.92
2022-08-25T15:27:40.969Z,29.21
2022-08-25T15:30:10.062Z,29.08
2022-08-25T15:32:41.195Z,29.16
2022-08-25T15:35:11.867Z,29.77
2022-08-25T15:37:43.037Z,30.48
2022-08-25T15:40:11.007Z,30.62
2022-08-25T15:42:39.414Z,31.08
2022-08-25T15:45:11.575Z,30.98
2022-08-25T15:47:38.958Z,31.50
2022-08-25T15:50:16.252Z,32.26
2022-08-25T15:52:46.401Z,32.88
2022-08-25T15:55:17.242Z,33.34
2022-08-25T15:57:44.969Z,33.50
2022-08-25T16:00:16.776Z,33.73
2022-08-25T16:02:46.240Z,34.33
2022-08-25T16:05:16.422Z,34.57
2022-08-25T16:07:46.199Z,35.04
2022-08-25T16:10:19.716Z,35.09
2022-08-25T16:12:47.543Z,35.50
2022-08-25T16:15:16.136Z,35.71
2022-08-25T16:17:45.966Z,35.88
2022-08-25T16:20:17.266Z,36.17
2022-08-25T16:22:45.526Z,37.38
2022-08-25T16:25:14.123Z,37.82
2022-08-25T16:27:41.547Z,37.82
2022-08-25T16:30:17.570Z,38.30
2022-08-25T16:32:46.768Z,38.36
2022-08-25T16:35:14.521Z,39.11
2022-08-25T16:37:41.810Z,39.36
2022-08-25T16:40:14.765Z,39.82
2022-08-25T16:42:42.661Z,40.17
2022-08-25T16:45:10.450Z,41.06
2022-08-25T16:47:38.205Z,41.22
2022-08-25T16:50:10.818Z,42.25
2022-08-25T16:52:58.302Z,43.76
2022-08-25T16:55:38.913Z,44.74
2022-08-25T16:58:13.377Z,45.46
2022-08-25T17:00:41.348Z,45.60
2022-08-25T17:03:11.218Z,45.85
2022-08-25T17:05:43.351Z,46.38
2022-08-25T17:08:30.581Z,46.21
2022-08-25T17:11:14.202Z,47.66
2022-08-25T17:13:50.097Z,48.67
2022-08-25T17:16:19.821Z,48.57
2022-08-25T17:18:48.583Z,49.07
2022-08-25T17:21:24.569Z,49.20
2022-08-25T17:23:54.354Z,49.69
2022-08-25T17:26:28.079Z,50.15
2022-08-25T17:29:01.295Z,50.54
2022-08-25T17:31:30.108Z,51.44
2022-08-25T17:33:58.707Z,51.72
2022-08-25T17:36:27.086Z,52.00
2022-08-25T17:38:56.751Z,52.50
2022-08-25T17:41:25.132Z,52.35
2022-08-25T17:43:52.370Z,53.27
2022-08-25T17:46:21.582Z,53.86
2022-08-25T17:48:49.088Z,53.79
2022-08-25T17:51:16.505Z,53.75
2022-08-25T17:53:44.947Z,54.24
2022-08-25T17:56:18.567Z,54.10
2022-08-25T17:58:47.784Z,53.80
2022-08-25T18:01:28.746Z,53.84
2022-08-25T18:03:57.494Z,53.81
2022-08-25T18:06:26.789Z,54.18
2022-08-25T18:08:58.724Z,54.80
2022-08-25T18:11:28.858Z,55.72
2022-08-25T18:13:58.264Z,58.14
2022-08-25T18:16:27.025Z,57.80
2022-08-25T18:18:55.813Z,58.63
2022-08-25T18:21:25.630Z,58.43
2022-08-25T18:23:58.883Z,58.96
2022-08-25T18:26:27.145Z,59.60
2022-08-25T18:28:54.611Z,60.02
2022-08-25T18:31:22.276Z,61.60
2022-08-25T18:33:51.010Z,62.00
2022-08-25T18:36:22.959Z,62.29
2022-08-25T18:39:09.597Z,62.72
2022-08-25T18:41:42.558Z,63.35
2022-08-25T18:44:11.191Z,62.81
2022-08-25T18:46:40.297Z,62.81
2022-08-25T18:49:08.530Z,63.09
2022-08-25T18:51:36.531Z,64.12
2022-08-25T18:54:05.357Z,64.48
2022-08-25T18:56:34.694Z,65.08
2022-08-25T18:59:02.722Z,65.05
2022-08-25T19:01:30.484Z,64.97
2022-08-25T19:03:57.988Z,65.00
2022-08-25T19:06:25.716Z,65.10
2022-08-25T19:08:53.543Z,64.99
2022-08-25T19:11:22.251Z,65.01
2022-08-25T19:13:51.576Z,65.77
2022-08-25T19:16:40.968Z,65.25
2022-08-25T19:19:13.215Z,64.84
2022-08-25T19:21:41.943Z,64.77
2022-08-25T19:24:12.267Z,64.93
2022-08-25T19:26:40.552Z,65.05
2022-08-25T19:29:17.501Z,65.05
2022-08-25T19:31:47.935Z,65.29
2022-08-25T19:34:28.220Z,66.16
2022-08-25T19:37:01.292Z,65.90
2022-08-25T19:39:30.549Z,66.32
2022-08-25T19:41:58.211Z,66.76
2022-08-25T19:44:28.235Z,68.19
2022-08-25T19:46:57.158Z,67.61
2022-08-25T19:49:31.754Z,67.33
2022-08-25T19:52:03.165Z,67.74
2022-08-25T19:54:44.614Z,67.39
2022-08-25T19:57:20.774Z,67.32
2022-08-25T19:59:56.196Z,67.86
2022-08-25T20:02:28.322Z,68.45
2022-08-25T20:05:00.007Z,68.52
2022-08-25T20:07:31.076Z,68.83
2022-08-25T20:10:00.457Z,68.72
2022-08-25T20:12:28.712Z,68.88
2022-08-25T20:14:56.759Z,68.57
2022-08-25T20:17:26.169Z,68.50
2022-08-25T20:19:59.881Z,68.74
2022-08-25T20:22:31.728Z,68.48
2022-08-25T20:25:07.348Z,69.20
2022-08-25T20:27:52.402Z,70.13
2022-08-25T20:30:28.992Z,70.00
2022-08-25T20:32:58.238Z,69.33
2022-08-25T20:35:29.222Z,69.03
2022-08-25T20:37:59.207Z,69.08
2022-08-25T20:40:30.490Z,68.82
2022-08-25T20:43:03.402Z,68.65
2022-08-25T20:45:31.346Z,69.13
2022-08-25T20:47:58.783Z,69.45
2022-08-25T20:50:27.907Z,69.39
2022-08-25T20:52:56.871Z,69.61
2022-08-25T20:55:24.666Z,69.51
2022-08-25T20:57:53.932Z,70.78
2022-08-25T21:00:23.454Z,71.75
2022-08-25T21:02:53.006Z,71.84
2022-08-25T21:05:20.415Z,71.20
2022-08-25T21:07:48.951Z,71.36
2022-08-25T21:10:16.923Z,71.35
2022-08-25T21:12:45.309Z,72.05
2022-08-25T21:15:18.107Z,72.41
2022-08-25T21:17:50.850Z,72.49
2022-08-25T21:20:18.479Z,72.08
2022-08-25T21:22:45.753Z,72.02
2022-08-25T21:25:13.673Z,72.13
2022-08-25T21:27:41.388Z,71.90
2022-08-25T21:30:12.384Z,72.16
2022-08-25T21:32:39.743Z,72.09
2022-08-25T21:35:23.134Z,72.12
2022-08-25T21:37:53.357Z,72.52
2022-08-25T21:40:23.036Z,72.19
2022-08-25T21:42:52.399Z,72.83
2022-08-25T21:45:20.961Z,73.84
2022-08-25T21:47:49.289Z,74.05
2022-08-25T21:50:16.858Z,73.57
2022-08-25T21:52:44.413Z,73.18
2022-08-25T21:55:15.774Z,73.36
2022-08-25T21:57:44.157Z,73.58
2022-08-25T22:00:13.637Z,73.26
2022-08-25T22:02:43.858Z,73.00
2022-08-25T22:05:12.251Z,72.74
2022-08-25T22:07:43.924Z,72.61
2022-08-25T22:10:16.768Z,72.81
2022-08-25T22:12:47.377Z,72.98
2022-08-25T22:15:17.837Z,73.14
2022-08-25T22:17:48.111Z,73.05
2022-08-25T22:20:18.220Z,73.30
2022-08-25T22:22:45.772Z,73.29
2022-08-25T22:25:14.152Z,73.40
2022-08-25T22:27:41.981Z,73.78
2022-08-25T22:30:10.767Z,74.60
2022-08-25T22:32:38.217Z,74.44
2022-08-25T22:35:08.086Z,75.46
2022-08-25T22:37:36.933Z,74.76
2022-08-25T22:40:05.845Z,75.27
2022-08-25T22:42:33.362Z,75.53
2022-08-25T22:45:01.286Z,75.59
2022-08-25T22:47:28.725Z,75.95
2022-08-25T22:49:58.597Z,76.64
2022-08-25T22:52:33.736Z,76.65
2022-08-25T22:55:03.169Z,76.31
2022-08-25T22:57:30.698Z,75.76
2022-08-25T22:59:59.332Z,76.11
2022-08-25T23:02:30.306Z,76.99
2022-08-25T23:04:57.978Z,77.17
2022-08-25T23:07:29.311Z,77.29
2022-08-25T23:10:02.651Z,77.08
2022-08-25T23:12:30.756Z,77.04
2022-08-25T23:14:58.105Z,77.42
2022-08-25T23:17:25.615Z,76.69
2022-08-25T23:19:53.042Z,76.91
2022-08-25T23:22:20.311Z,76.74
2022-08-25T23:24:53.471Z,77.36
2022-08-25T23:27:22.009Z,77.55
2022-08-25T23:29:51.050Z,77.38
2022-08-25T23:32:18.865Z,77.44
2022-08-25T23:34:47.191Z,77.69
2022-08-25T23:37:18.379Z,77.46
2022-08-25T23:39:49.856Z,77.37
2022-08-25T23:42:19.844Z,77.09
2022-08-25T23:44:49.357Z,77.11
2022-08-25T23:47:18.473Z,77.42
2022-08-25T23:49:46.265Z,77.44
2022-08-25T23:52:17.336Z,77.13
2022-08-25T23:54:46.285Z,77.34
2022-08-25T23:57:13.605Z,77.57
2022-08-25T23:59:42.304Z,77.65
